createdAt,value
2018-09-12T00:00:19.881Z,80.70
2018-09-12T00:02:48.724Z,80.80
2018-09-12T00:05:17.659Z,81.20
2018-09-12T00:07:46.563Z,81.90
2018-09-12T00:10:15.391Z,82.10
2018-09-12T00:12:44.227Z,82.60
2018-09-12T00:15:13.207Z,83.20
2018-09-12T00:17:42.085Z,83.40
2018-09-12T00:20:10.952Z,83.70
2018-09-12T00:22:39.932Z,84.10
2018-09-12T00:25:08.799Z,84.10
2018-09-12T00:27:37.633Z,84.00
2018-09-12T00:30:06.523Z,84.50
2018-09-12T00:32:35.355Z,84.50
2018-09-12T00:35:04.192Z,84.20
2018-09-12T00:37:33.086Z,84.40
2018-09-12T00:40:01.976Z,84.50
2018-09-12T00:42:30.823Z,84.90
2018-09-12T00:44:59.817Z,85.10
2018-09-12T00:47:28.716Z,85.40
2018-09-12T00:49:57.544Z,85.70
2018-09-12T00:52:26.422Z,85.80
2018-09-12T00:54:55.247Z,86.40
2018-09-12T00:57:24.117Z,86.50
2018-09-12T00:59:53.016Z,86.60
2018-09-12T01:02:21.868Z,86.90
2018-09-12T01:04:50.703Z,87.50
2018-09-12T01:07:19.627Z,87.50
2018-09-12T01:09:48.449Z,87.70
2018-09-12T01:12:17.316Z,87.60
2018-09-12T01:14:46.212Z,87.60
2018-09-12T01:17:15.059Z,87.70
2018-09-12T01:19:45.512Z,88.10
2018-09-12T01:22:14.509Z,87.90
2018-09-12T01:24:43.370Z,87.70
2018-09-12T01:27:12.314Z,87.90
2018-09-12T01:29:41.201Z,87.70
2018-09-12T01:32:10.028Z,87.30
2018-09-12T01:34:38.879Z,88.10
2018-09-12T01:37:07.803Z,87.80
2018-09-12T01:39:36.636Z,87.50
2018-09-12T01:42:05.588Z,87.30
2018-09-12T01:44:34.522Z,87.10
2018-09-12T01:47:03.380Z,87.30
2018-09-12T01:49:32.255Z,87.10
2018-09-12T01:52:01.137Z,87.30
2018-09-12T01:54:29.971Z,87.30
2018-09-12T01:56:58.868Z,87.50
2018-09-12T01:59:27.811Z,87.90
2018-09-12T02:01:56.643Z,87.80
2018-09-12T02:04:25.496Z,87.70
2018-09-12T02:06:54.385Z,87.80
2018-09-12T02:09:23.248Z,87.60
2018-09-12T02:11:52.071Z,87.60
2018-09-12T02:14:21.009Z,87.70
2018-09-12T02:16:49.892Z,88.10
2018-09-12T02:19:18.736Z,88.20
2018-09-12T02:21:47.706Z,88.40
2018-09-12T02:24:16.605Z,88.70
2018-09-12T02:26:45.613Z,88.90
2018-09-12T02:29:14.616Z,89.40
2018-09-12T02:31:43.472Z,90.10
2018-09-12T02:34:12.357Z,89.60
2018-09-12T02:36:41.250Z,89.80
2018-09-12T02:39:10.173Z,90.00
2018-09-12T02:41:39.027Z,90.20
2018-09-12T02:44:07.919Z,90.20
2018-09-12T02:46:36.797Z,90.30
2018-09-12T02:49:05.657Z,90.30
2018-09-12T02:51:34.524Z,90.50
2018-09-12T02:54:03.358Z,90.60
2018-09-12T02:56:32.194Z,90.60
2018-09-12T02:59:01.088Z,90.70
2018-09-12T03:01:29.923Z,90.70
2018-09-12T03:03:58.768Z,90.70
2018-09-12T03:06:27.648Z,90.90
2018-09-12T03:08:56.495Z,90.90
2018-09-12T03:11:25.347Z,90.70
2018-09-12T03:13:54.225Z,90.80
2018-09-12T03:16:23.117Z,90.90
2018-09-12T03:18:51.961Z,90.90
2018-09-12T03:21:20.840Z,91.30
2018-09-12T03:23:49.692Z,91.10
2018-09-12T03:26:18.534Z,91.10
2018-09-12T03:28:47.417Z,91.10
2018-09-12T03:31:16.416Z,90.90
2018-09-12T03:33:45.253Z,90.80
2018-09-12T03:36:14.219Z,90.80
2018-09-12T03:38:43.086Z,90.60
2018-09-12T03:41:11.929Z,90.60
2018-09-12T03:43:40.848Z,90.40
2018-09-12T03:46:09.712Z,90.40
2018-09-12T03:48:38.563Z,90.60
2018-09-12T03:51:07.461Z,90.70
2018-09-12T03:53:36.354Z,90.70
2018-09-12T03:56:05.172Z,90.80
2018-09-12T03:58:34.142Z,90.90
2018-09-12T04:01:02.992Z,90.90
2018-09-12T04:03:31.893Z,91.10
2018-09-12T04:06:00.793Z,91.00
2018-09-12T04:08:29.620Z,91.10
2018-09-12T04:10:58.474Z,91.20
2018-09-12T04:13:27.499Z,91.40
2018-09-12T04:15:56.362Z,91.50
2018-09-12T04:18:25.208Z,91.60
2018-09-12T04:20:54.099Z,91.70
2018-09-12T04:23:22.975Z,91.70
2018-09-12T04:25:51.820Z,91.60
2018-09-12T04:28:21.928Z,91.70
2018-09-12T04:30:51.970Z,91.70
2018-09-12T04:33:20.858Z,91.50
2018-09-12T04:35:49.900Z,91.20
2018-09-12T04:38:18.882Z,91.20
2018-09-12T04:40:47.717Z,91.00
2018-09-12T04:43:16.975Z,91.00
2018-09-12T04:45:45.912Z,91.10
2018-09-12T04:48:15.044Z,91.00
2018-09-12T04:50:44.143Z,90.80
2018-09-12T04:53:13.013Z,90.90
2018-09-12T04:55:42.117Z,90.90
2018-09-12T04:58:11.012Z,90.90
2018-09-12T05:00:39.945Z,90.60
2018-09-12T05:03:08.833Z,90.30
2018-09-12T05:05:37.820Z,90.00
2018-09-12T05:08:07.524Z,89.60
2018-09-12T05:10:36.392Z,88.80
2018-09-12T05:13:05.333Z,88.00
2018-09-12T05:15:34.186Z,88.10
2018-09-12T05:18:03.060Z,87.70
2018-09-12T05:20:31.990Z,88.30
2018-09-12T05:23:00.951Z,88.70
2018-09-12T05:25:30.543Z,89.00
2018-09-12T05:27:59.445Z,89.50
2018-09-12T05:30:28.388Z,89.00
2018-09-12T05:33:10.010Z,88.90
2018-09-12T05:35:38.897Z,89.00
2018-09-12T05:38:07.821Z,89.40
2018-09-12T05:40:36.697Z,89.80
2018-09-12T05:43:05.582Z,88.60
2018-09-12T05:45:34.536Z,87.90
2018-09-12T05:48:04.321Z,86.70
2018-09-12T05:50:33.204Z,85.00
2018-09-12T05:53:02.141Z,83.90
2018-09-12T05:55:31.021Z,83.00
2018-09-12T05:57:59.902Z,83.00
2018-09-12T06:00:29.001Z,82.30
2018-09-12T06:02:57.891Z,82.80
2018-09-12T06:05:26.846Z,83.40
2018-09-12T06:07:56.618Z,83.20
2018-09-12T06:10:25.868Z,82.80
2018-09-12T06:12:54.990Z,83.50
2018-09-12T06:15:23.940Z,82.40
2018-09-12T06:17:53.030Z,82.50
2018-09-12T06:20:21.893Z,82.60
2018-09-12T06:22:50.975Z,82.30
2018-09-12T06:25:19.901Z,81.10
2018-09-12T06:27:48.785Z,79.80
2018-09-12T06:30:17.771Z,79.20
2018-09-12T06:32:46.646Z,78.60
2018-09-12T06:35:15.556Z,76.40
2018-09-12T06:37:44.488Z,77.30
2018-09-12T06:40:13.388Z,77.50
2018-09-12T06:42:42.277Z,76.90
2018-09-12T06:45:11.234Z,77.90
2018-09-12T06:47:40.162Z,77.90
2018-09-12T06:50:09.131Z,77.30
2018-09-12T06:52:38.038Z,75.80
2018-09-12T06:55:06.937Z,74.80
2018-09-12T06:57:35.793Z,73.50
2018-09-12T07:00:04.875Z,72.60
2018-09-12T07:02:33.755Z,72.60
2018-09-12T07:05:02.590Z,72.60
2018-09-12T07:07:31.612Z,73.20
2018-09-12T07:10:00.444Z,72.40
2018-09-12T07:12:29.316Z,70.20
2018-09-12T07:14:58.229Z,70.30
2018-09-12T07:17:27.091Z,70.50
2018-09-12T07:19:55.948Z,68.60
2018-09-12T07:22:24.857Z,67.80
2018-09-12T07:24:53.699Z,63.90
2018-09-12T07:27:22.542Z,64.70
2018-09-12T07:29:51.432Z,62.10
2018-09-12T07:32:20.259Z,61.50
2018-09-12T07:34:49.076Z,61.00
2018-09-12T07:37:18.008Z,60.80
2018-09-12T07:39:46.882Z,62.90
2018-09-12T07:42:15.733Z,61.30
2018-09-12T07:44:44.598Z,61.40
2018-09-12T07:47:13.472Z,59.90
2018-09-12T07:49:42.307Z,60.30
2018-09-12T07:52:11.232Z,61.50
2018-09-12T07:54:40.176Z,62.80
2018-09-12T07:57:09.023Z,62.80
2018-09-12T07:59:38.000Z,63.00
2018-09-12T08:02:06.839Z,63.70
2018-09-12T08:04:36.257Z,63.70
2018-09-12T08:07:05.155Z,63.10
2018-09-12T08:09:34.004Z,63.30
2018-09-12T08:12:02.855Z,63.60
2018-09-12T08:14:31.772Z,63.70
2018-09-12T08:17:00.635Z,63.70
2018-09-12T08:19:29.492Z,64.30
2018-09-12T08:21:58.500Z,63.60
2018-09-12T08:24:27.379Z,63.40
2018-09-12T08:26:56.234Z,63.70
2018-09-12T08:29:25.132Z,63.50
2018-09-12T08:31:54.577Z,64.20
2018-09-12T08:34:23.403Z,61.10
2018-09-12T08:36:52.317Z,63.30
2018-09-12T08:39:21.144Z,62.80
2018-09-12T08:41:49.972Z,61.00
2018-09-12T08:44:18.861Z,61.30
2018-09-12T08:46:47.740Z,62.40
2018-09-12T08:49:16.629Z,62.30
2018-09-12T08:51:45.502Z,61.10
2018-09-12T08:54:14.344Z,61.50
2018-09-12T08:56:43.275Z,60.00
2018-09-12T08:59:12.180Z,61.60
2018-09-12T09:01:41.118Z,61.70
2018-09-12T09:04:10.014Z,60.20
2018-09-12T09:06:38.901Z,60.50
2018-09-12T09:09:10.080Z,60.10
2018-09-12T09:11:39.097Z,61.30
2018-09-12T09:14:08.064Z,58.70
2018-09-12T09:16:37.745Z,59.00
2018-09-12T09:19:06.633Z,59.40
2018-09-12T09:21:35.508Z,59.70
2018-09-12T09:24:04.343Z,57.70
2018-09-12T09:26:33.347Z,57.10
2018-09-12T09:29:02.204Z,57.40
2018-09-12T09:31:31.077Z,56.90
2018-09-12T09:34:00.088Z,56.40
2018-09-12T09:36:28.924Z,56.40
2018-09-12T09:38:57.755Z,56.90
2018-09-12T09:41:26.648Z,56.80
2018-09-12T09:43:55.520Z,55.70
2018-09-12T09:46:24.373Z,55.90
2018-09-12T09:48:53.271Z,56.40
2018-09-12T09:51:22.119Z,54.70
2018-09-12T09:53:50.974Z,54.00
2018-09-12T09:56:19.911Z,54.80
2018-09-12T09:58:49.030Z,55.10
2018-09-12T10:01:23.099Z,54.00
2018-09-12T10:03:57.052Z,54.10
2018-09-12T10:06:32.880Z,53.50
2018-09-12T10:09:05.979Z,54.50
2018-09-12T10:11:34.863Z,54.50
2018-09-12T10:14:03.697Z,54.50
2018-09-12T10:16:32.540Z,54.70
2018-09-12T10:19:01.429Z,54.50
2018-09-12T10:21:30.269Z,54.30
2018-09-12T10:23:59.112Z,54.70
2018-09-12T10:26:27.995Z,53.90
2018-09-12T10:28:56.844Z,53.90
2018-09-12T10:31:25.746Z,55.10
2018-09-12T10:33:54.626Z,54.30
2018-09-12T10:36:23.481Z,53.60
2018-09-12T10:38:52.409Z,53.40
2018-09-12T10:41:21.385Z,53.00
2018-09-12T10:43:50.419Z,52.10
2018-09-12T10:46:19.253Z,52.30
2018-09-12T10:48:48.234Z,52.40
2018-09-12T10:51:17.094Z,52.40
2018-09-12T10:53:45.970Z,52.50
2018-09-12T10:56:14.985Z,51.80
2018-09-12T10:58:43.843Z,50.90
2018-09-12T11:01:12.765Z,51.10
2018-09-12T11:03:41.679Z,51.50
2018-09-12T11:06:10.512Z,51.00
2018-09-12T11:08:39.354Z,51.10
2018-09-12T11:11:08.252Z,51.10
2018-09-12T11:13:37.161Z,51.20
2018-09-12T11:16:06.008Z,52.20
2018-09-12T11:18:34.859Z,50.30
2018-09-12T11:21:03.712Z,49.90
2018-09-12T11:23:32.554Z,50.30
2018-09-12T11:26:01.428Z,50.10
2018-09-12T11:28:30.294Z,50.80
2018-09-12T11:30:59.126Z,49.80
2018-09-12T11:33:28.003Z,50.60
2018-09-12T11:35:56.897Z,48.80
2018-09-12T11:38:25.733Z,50.10
2018-09-12T11:40:54.840Z,49.80
2018-09-12T11:43:23.709Z,50.60
2018-09-12T11:45:52.617Z,51.40
2018-09-12T11:48:21.531Z,50.70
2018-09-12T11:50:50.389Z,50.00
2018-09-12T11:53:19.284Z,49.60
2018-09-12T11:55:48.294Z,50.00
2018-09-12T11:58:17.144Z,49.30
2018-09-12T12:00:45.981Z,49.10
2018-09-12T12:03:14.901Z,48.60
2018-09-12T12:05:43.799Z,50.00
2018-09-12T12:08:12.623Z,49.90
2018-09-12T12:10:41.623Z,50.40
2018-09-12T12:13:10.459Z,49.50
2018-09-12T12:15:39.352Z,50.10
2018-09-12T12:18:08.294Z,49.40
2018-09-12T12:20:37.161Z,48.50
2018-09-12T12:23:06.139Z,48.70
2018-09-12T12:25:35.037Z,48.80
2018-09-12T12:28:03.877Z,49.10
2018-09-12T12:30:32.758Z,48.10
2018-09-12T12:33:01.628Z,47.40
2018-09-12T12:35:30.602Z,48.80
2018-09-12T12:37:59.368Z,49.10
2018-09-12T12:40:28.359Z,49.00
2018-09-12T12:42:57.199Z,49.70
2018-09-12T12:45:26.025Z,49.20
2018-09-12T12:47:57.561Z,49.30
2018-09-12T12:50:26.393Z,48.20
2018-09-12T12:52:55.253Z,48.20
2018-09-12T12:55:24.163Z,49.30
2018-09-12T12:57:53.006Z,47.90
2018-09-12T13:00:21.840Z,48.20
2018-09-12T13:02:50.732Z,48.40
2018-09-12T13:05:19.578Z,47.80
2018-09-12T13:07:48.416Z,47.80
2018-09-12T13:10:17.433Z,47.90
2018-09-12T13:12:46.253Z,48.80
2018-09-12T13:15:15.122Z,47.70
2018-09-12T13:17:44.811Z,47.90
2018-09-12T13:20:13.626Z,48.00
2018-09-12T13:22:42.479Z,47.70
2018-09-12T13:25:11.388Z,47.70
2018-09-12T13:27:40.369Z,47.70
2018-09-12T13:30:09.194Z,48.00
2018-09-12T13:32:38.167Z,47.60
2018-09-12T13:35:07.049Z,48.10
2018-09-12T13:37:36.057Z,47.90
2018-09-12T13:40:05.203Z,49.00
2018-09-12T13:42:34.045Z,48.70
2018-09-12T13:45:02.879Z,49.00
2018-09-12T13:47:31.751Z,48.80
2018-09-12T13:50:00.607Z,48.90
2018-09-12T13:52:29.422Z,48.20
2018-09-12T13:54:58.387Z,47.70
2018-09-12T13:57:27.231Z,48.00
2018-09-12T13:59:56.095Z,48.50
2018-09-12T14:02:25.016Z,48.20
2018-09-12T14:04:53.932Z,48.30
2018-09-12T14:07:22.774Z,48.30
2018-09-12T14:09:51.780Z,48.30
2018-09-12T14:12:20.632Z,48.70
2018-09-12T14:14:49.511Z,48.20
2018-09-12T14:17:18.787Z,48.60
2018-09-12T14:19:47.690Z,48.80
2018-09-12T14:22:16.525Z,48.80
2018-09-12T14:24:45.504Z,48.30
2018-09-12T14:27:14.366Z,48.60
2018-09-12T14:29:43.270Z,48.20
2018-09-12T14:32:12.222Z,48.90
2018-09-12T14:34:41.224Z,48.80
2018-09-12T14:37:10.144Z,48.90
2018-09-12T14:39:39.269Z,49.00
2018-09-12T14:42:08.206Z,48.20
2018-09-12T14:44:37.037Z,49.20
2018-09-12T14:47:06.001Z,48.70
2018-09-12T14:49:35.643Z,48.70
2018-09-12T14:52:04.487Z,49.00
2018-09-12T14:54:33.476Z,48.00
2018-09-12T14:57:02.403Z,48.30
2018-09-12T14:59:31.557Z,48.90
2018-09-12T15:02:00.384Z,48.70
2018-09-12T15:04:29.241Z,49.20
2018-09-12T15:06:58.160Z,48.80
2018-09-12T15:09:26.996Z,48.70
2018-09-12T15:11:56.942Z,48.80
2018-09-12T15:14:25.783Z,49.00
2018-09-12T15:16:55.272Z,49.00
2018-09-12T15:19:24.122Z,49.20
2018-09-12T15:21:53.070Z,49.50
2018-09-12T15:24:22.842Z,49.80
2018-09-12T15:26:51.718Z,49.10
2018-09-12T15:29:20.756Z,49.30
2018-09-12T15:31:50.041Z,49.10
2018-09-12T15:34:18.955Z,49.30
2018-09-12T15:36:47.919Z,49.70
2018-09-12T15:39:16.952Z,49.80
2018-09-12T15:41:45.834Z,50.60
2018-09-12T15:44:14.719Z,50.20
2018-09-12T15:46:43.650Z,51.00
2018-09-12T15:49:12.496Z,51.10
2018-09-12T15:51:41.345Z,50.60
2018-09-12T15:54:10.276Z,50.60
2018-09-12T15:56:39.126Z,51.40
2018-09-12T15:59:08.029Z,51.70
2018-09-12T16:01:36.891Z,52.40
2018-09-12T16:04:05.897Z,52.30
2018-09-12T16:06:34.765Z,52.10
2018-09-12T16:09:04.379Z,52.50
2018-09-12T16:11:33.237Z,53.00
2018-09-12T16:14:02.234Z,53.80
2018-09-12T16:16:31.123Z,53.70
2018-09-12T16:18:59.992Z,53.90
2018-09-12T16:21:28.849Z,54.30
2018-09-12T16:24:00.263Z,54.50
2018-09-12T16:26:29.315Z,54.10
2018-09-12T16:28:58.151Z,54.50
2018-09-12T16:31:27.118Z,55.10
2018-09-12T16:33:56.139Z,55.10
2018-09-12T16:36:25.391Z,55.50
2018-09-12T16:38:54.233Z,56.00
2018-09-12T16:41:23.108Z,56.50
2018-09-12T16:43:52.080Z,56.50
2018-09-12T16:46:20.927Z,57.10
2018-09-12T16:48:49.973Z,57.60
2018-09-12T16:51:19.006Z,57.60
2018-09-12T16:53:47.868Z,57.90
2018-09-12T16:56:16.915Z,57.80
2018-09-12T16:58:50.799Z,58.30
2018-09-12T17:01:22.511Z,58.70
2018-09-12T17:03:51.363Z,59.00
2018-09-12T17:06:20.266Z,59.00
2018-09-12T17:08:49.208Z,59.60
2018-09-12T17:11:18.164Z,59.70
2018-09-12T17:13:47.116Z,60.50
2018-09-12T17:16:15.959Z,62.00
2018-09-12T17:18:44.906Z,62.40
2018-09-12T17:21:15.098Z,61.80
2018-09-12T17:23:44.048Z,62.40
2018-09-12T17:26:12.942Z,63.30
2018-09-12T17:28:41.881Z,63.20
2018-09-12T17:31:10.721Z,63.50
2018-09-12T17:33:39.664Z,64.10
2018-09-12T17:36:08.499Z,64.90
2018-09-12T17:38:37.377Z,66.00
2018-09-12T17:41:06.289Z,66.60
2018-09-12T17:43:35.199Z,67.40
2018-09-12T17:46:04.057Z,68.40
2018-09-12T17:48:33.400Z,70.30
2018-09-12T17:51:03.228Z,69.80
2018-09-12T17:53:32.293Z,70.70
2018-09-12T17:56:02.649Z,71.60
2018-09-12T17:58:36.792Z,72.10
2018-09-12T18:01:05.857Z,72.50
2018-09-12T18:03:34.870Z,72.70
2018-09-12T18:06:03.852Z,73.00
2018-09-12T18:08:32.708Z,74.10
2018-09-12T18:11:01.935Z,74.40
2018-09-12T18:13:43.841Z,74.80
2018-09-12T18:16:13.424Z,75.10
2018-09-12T18:18:42.410Z,75.80
2018-09-12T18:21:11.361Z,75.80
2018-09-12T18:23:40.644Z,76.40
2018-09-12T18:26:09.553Z,76.60
2018-09-12T18:28:38.544Z,77.00
2018-09-12T18:31:07.507Z,77.10
2018-09-12T18:33:36.328Z,77.60
2018-09-12T18:36:05.209Z,78.10
2018-09-12T18:38:34.312Z,78.10
2018-09-12T18:41:03.552Z,78.40
2018-09-12T18:43:32.525Z,79.50
2018-09-12T18:46:07.550Z,78.80
2018-09-12T18:51:52.340Z,79.50
2018-09-12T18:57:11.535Z,80.70
2018-09-12T18:59:42.144Z,81.30
2018-09-12T19:02:11.692Z,82.20
2018-09-12T19:04:40.990Z,81.60
2018-09-12T19:07:11.624Z,81.90
2018-09-12T19:09:42.600Z,82.00
2018-09-12T19:12:12.478Z,82.40
2018-09-12T19:14:42.374Z,82.80
2018-09-12T19:17:12.880Z,82.80
2018-09-12T19:19:48.280Z,83.20
2018-09-12T19:22:21.185Z,83.60
2018-09-12T19:25:11.268Z,83.70
2018-09-12T19:27:46.351Z,84.00
2018-09-12T19:30:17.278Z,84.10
2018-09-12T19:32:46.947Z,84.20
2018-09-12T19:35:16.797Z,84.90
2018-09-12T19:37:45.885Z,85.00
2018-09-12T19:40:14.913Z,85.20
2018-09-12T19:42:43.939Z,85.30
2018-09-12T19:45:12.890Z,85.60
2018-09-12T19:47:41.929Z,86.00
2018-09-12T19:50:10.842Z,86.00
2018-09-12T19:52:39.884Z,86.40
2018-09-12T19:55:08.881Z,86.70
2018-09-12T19:57:37.809Z,86.70
2018-09-12T20:00:12.336Z,86.90
2018-09-12T20:02:41.266Z,87.20
2018-09-12T20:05:10.182Z,87.10
2018-09-12T20:07:39.155Z,87.30
2018-09-12T20:10:08.145Z,87.70
2018-09-12T20:12:37.157Z,87.70
2018-09-12T20:15:06.133Z,87.60
2018-09-12T20:17:35.106Z,88.50
2018-09-12T20:20:04.018Z,87.90
2018-09-12T20:22:33.499Z,88.00
2018-09-12T20:25:03.323Z,87.40
2018-09-12T20:27:33.594Z,87.80
2018-09-12T20:30:03.096Z,87.60
2018-09-12T20:32:32.284Z,87.80
2018-09-12T20:35:01.373Z,88.50
2018-09-12T20:37:30.451Z,88.50
2018-09-12T20:39:59.402Z,89.60
2018-09-12T20:42:28.610Z,89.00
2018-09-12T20:44:57.636Z,89.80
2018-09-12T20:47:26.695Z,90.10
2018-09-12T20:49:55.984Z,90.10
2018-09-12T20:52:24.872Z,90.20
2018-09-12T20:54:54.191Z,90.20
2018-09-12T20:57:23.536Z,90.30
2018-09-12T20:59:52.928Z,90.40
2018-09-12T21:02:22.277Z,90.50
2018-09-12T21:04:51.405Z,90.50
2018-09-12T21:07:21.012Z,90.50
2018-09-12T21:09:50.851Z,90.60
2018-09-12T21:12:20.261Z,90.40
2018-09-12T21:14:50.602Z,90.40
2018-09-12T21:17:19.948Z,90.50
2018-09-12T21:19:49.294Z,90.50
2018-09-12T21:22:18.674Z,90.50
2018-09-12T21:24:51.499Z,90.70
2018-09-12T21:27:20.840Z,90.80
2018-09-12T21:29:50.114Z,90.90
2018-09-12T21:32:26.199Z,91.00
2018-09-12T21:34:57.437Z,91.00
2018-09-12T21:37:27.679Z,90.80
2018-09-12T21:39:57.600Z,90.20
2018-09-12T21:42:27.023Z,90.00
2018-09-12T21:44:56.311Z,88.40
2018-09-12T21:47:25.632Z,86.40
2018-09-12T21:49:54.741Z,85.20
2018-09-12T21:52:23.811Z,84.00
2018-09-12T21:54:52.851Z,83.20
2018-09-12T21:57:21.931Z,82.50
2018-09-12T21:59:50.825Z,82.60
2018-09-12T22:02:19.775Z,82.70
2018-09-12T22:04:48.668Z,82.20
2018-09-12T22:07:17.557Z,82.20
2018-09-12T22:09:46.522Z,82.60
2018-09-12T22:12:15.403Z,83.20
2018-09-12T22:14:44.328Z,83.70
2018-09-12T22:17:13.228Z,83.70
2018-09-12T22:19:42.106Z,83.90
2018-09-12T22:22:10.970Z,86.00
2018-09-12T22:24:39.942Z,86.90
2018-09-12T22:27:08.812Z,87.50
2018-09-12T22:29:37.686Z,88.30
2018-09-12T22:32:06.674Z,89.00
2018-09-12T22:34:35.558Z,89.40
2018-09-12T22:37:04.481Z,90.00
2018-09-12T22:39:33.472Z,90.40
2018-09-12T22:42:02.334Z,90.50
2018-09-12T22:44:31.202Z,90.70
2018-09-12T22:47:00.152Z,90.80
2018-09-12T22:49:29.036Z,91.00
2018-09-12T22:51:58.268Z,91.10
2018-09-12T22:54:27.206Z,91.10
2018-09-12T22:56:56.089Z,91.30
2018-09-12T22:59:24.951Z,91.30
2018-09-12T23:01:53.874Z,91.40
2018-09-12T23:04:22.852Z,91.60
2018-09-12T23:06:51.760Z,91.60
2018-09-12T23:09:20.678Z,91.80
2018-09-12T23:11:49.640Z,91.90
2018-09-12T23:14:18.523Z,92.20
2018-09-12T23:16:47.451Z,92.30
2018-09-12T23:19:16.337Z,92.70
2018-09-12T23:21:45.213Z,92.40
2018-09-12T23:24:14.124Z,92.20
2018-09-12T23:26:43.004Z,92.10
2018-09-12T23:29:11.868Z,92.00
2018-09-12T23:31:40.773Z,91.80
2018-09-12T23:34:09.649Z,91.70
2018-09-12T23:36:38.491Z,91.70
2018-09-12T23:39:10.371Z,91.50
2018-09-12T23:41:39.264Z,91.40
2018-09-12T23:44:08.325Z,91.30
2018-09-12T23:46:37.330Z,91.30
2018-09-12T23:49:06.892Z,91.40
2018-09-12T23:51:35.773Z,91.50
2018-09-12T23:54:04.817Z,91.60
2018-09-12T23:56:33.682Z,91.80
2018-09-12T23:59:02.545Z,92.00
